createdAt,value
2022-12-09T00:00:29.296Z,18.00
2022-12-09T00:03:32.999Z,24.00
2022-12-09T00:06:36.475Z,19.00
2022-12-09T00:09:41.325Z,20.20
2022-12-09T00:12:44.634Z,20.00
2022-12-09T00:15:48.202Z,20.60
2022-12-09T00:18:51.955Z,23.00
2022-12-09T00:21:55.605Z,21.75
2022-12-09T00:25:00.550Z,19.00
2022-12-09T00:28:04.122Z,19.00
2022-12-09T00:31:08.503Z,18.75
2022-12-09T00:34:14.138Z,17.75
2022-12-09T00:37:17.624Z,20.80
2022-12-09T00:40:23.548Z,16.40
2022-12-09T00:43:27.159Z,17.60
2022-12-09T00:46:30.987Z,16.50
2022-12-09T00:49:34.637Z,17.20
2022-12-09T00:52:38.095Z,19.25
2022-12-09T00:55:43.394Z,20.50
2022-12-09T00:58:46.779Z,21.00
2022-12-09T01:01:50.215Z,20.60
2022-12-09T01:04:56.439Z,17.40
2022-12-09T01:07:59.878Z,16.80
2022-12-09T01:11:09.774Z,21.00
2022-12-09T01:14:13.388Z,18.80
2022-12-09T01:17:16.848Z,21.00
2022-12-09T01:20:21.243Z,24.00
2022-12-09T01:23:25.017Z,21.40
2022-12-09T01:26:29.999Z,24.00
2022-12-09T01:29:33.302Z,23.00
2022-12-09T01:32:36.700Z,21.00
2022-12-09T01:35:41.660Z,24.00
2022-12-09T01:38:45.045Z,26.20
2022-12-09T01:41:51.478Z,24.00
2022-12-09T01:45:32.014Z,22.20
2022-12-09T01:48:39.004Z,25.40
2022-12-09T01:51:44.142Z,23.33
2022-12-09T01:54:53.508Z,26.00
2022-12-09T01:57:58.780Z,22.80
2022-12-09T02:01:02.708Z,25.25
2022-12-09T02:04:06.994Z,24.60
2022-12-09T02:07:12.849Z,24.20
2022-12-09T02:10:19.304Z,25.60
2022-12-09T02:13:45.121Z,27.60
2022-12-09T02:16:57.923Z,27.00
2022-12-09T02:20:10.243Z,29.00
2022-12-09T02:23:24.416Z,26.00
2022-12-09T02:26:37.023Z,28.00
2022-12-09T02:29:59.212Z,30.00
2022-12-09T02:33:19.943Z,26.60
2022-12-09T02:36:29.544Z,30.75
2022-12-09T02:39:40.557Z,30.00
2022-12-09T02:42:46.535Z,32.00
2022-12-09T02:45:51.749Z,31.60
2022-12-09T02:48:58.027Z,30.00
2022-12-09T02:52:05.682Z,32.00
2022-12-09T02:55:11.716Z,32.00
2022-12-09T02:58:16.727Z,28.20
2022-12-09T03:01:25.264Z,30.00
2022-12-09T03:04:31.441Z,31.75
2022-12-09T03:07:43.310Z,30.00
2022-12-09T03:10:56.219Z,30.60
2022-12-09T03:14:06.230Z,30.40
2022-12-09T03:17:15.615Z,30.00
2022-12-09T03:20:25.896Z,30.00
2022-12-09T03:23:32.891Z,30.00
2022-12-09T03:26:39.727Z,30.00
2022-12-09T03:29:46.288Z,31.40
2022-12-09T03:32:50.591Z,33.00
2022-12-09T03:35:57.713Z,32.00
2022-12-09T03:39:05.298Z,32.00
2022-12-09T03:42:16.916Z,31.80
2022-12-09T03:45:23.750Z,30.00
2022-12-09T03:48:27.454Z,24.20
2022-12-09T03:51:35.968Z,30.00
2022-12-09T03:54:44.865Z,30.60
2022-12-09T03:57:53.341Z,26.20
2022-12-09T04:00:57.379Z,28.60
2022-12-09T04:04:01.032Z,32.00
2022-12-09T04:07:04.590Z,30.00
2022-12-09T04:10:11.002Z,28.75
2022-12-09T04:13:14.946Z,30.00
2022-12-09T04:16:18.698Z,30.75
2022-12-09T04:19:22.505Z,30.00
2022-12-09T04:22:26.405Z,30.00
2022-12-09T04:25:31.294Z,26.25
2022-12-09T04:28:35.111Z,26.00
2022-12-09T04:31:38.870Z,28.40
2022-12-09T04:34:42.239Z,20.80
2022-12-09T04:37:45.460Z,26.40
2022-12-09T04:40:50.181Z,26.80
2022-12-09T04:43:53.650Z,26.00
2022-12-09T04:46:57.524Z,26.40
2022-12-09T04:50:01.534Z,26.00
2022-12-09T04:53:05.184Z,30.20
2022-12-09T04:56:13.843Z,40.40
2022-12-09T04:59:17.445Z,37.60
2022-12-09T05:02:21.173Z,43.00
2022-12-09T05:05:25.025Z,45.80
2022-12-09T05:08:31.753Z,44.00
2022-12-09T05:11:37.629Z,40.00
2022-12-09T05:14:41.127Z,39.75
2022-12-09T05:17:44.603Z,37.50
2022-12-09T05:20:49.369Z,42.00
2022-12-09T05:23:52.953Z,36.00
2022-12-09T05:26:58.188Z,41.00
2022-12-09T05:30:01.867Z,37.20
2022-12-09T05:33:05.945Z,37.60
2022-12-09T05:36:11.235Z,36.00
2022-12-09T05:39:14.772Z,37.00
2022-12-09T05:42:19.547Z,37.00
2022-12-09T05:45:22.927Z,36.60
2022-12-09T05:48:26.647Z,42.00
2022-12-09T05:51:31.373Z,39.80
2022-12-09T05:54:34.789Z,41.40
2022-12-09T05:57:39.764Z,42.00
2022-12-09T06:00:43.672Z,38.00
2022-12-09T06:03:48.628Z,38.25
2022-12-09T06:06:52.594Z,36.00
2022-12-09T06:09:56.493Z,37.00
2022-12-09T06:13:01.937Z,42.80
2022-12-09T06:16:06.973Z,41.60
2022-12-09T06:19:13.034Z,36.00
2022-12-09T06:22:16.914Z,43.00
2022-12-09T06:25:20.507Z,39.00
2022-12-09T06:28:25.733Z,36.20
2022-12-09T06:31:30.390Z,41.00
2022-12-09T06:34:34.455Z,34.60
2022-12-09T06:37:38.082Z,35.20
2022-12-09T06:40:43.116Z,34.00
2022-12-09T06:43:48.272Z,32.75
2022-12-09T06:46:52.107Z,37.20
2022-12-09T06:50:02.566Z,34.25
2022-12-09T06:53:09.539Z,36.00
2022-12-09T06:56:14.486Z,33.00
2022-12-09T06:59:20.578Z,34.20
2022-12-09T07:02:24.171Z,31.00
2022-12-09T07:05:28.829Z,38.40
2022-12-09T07:08:32.834Z,39.00
2022-12-09T07:11:36.838Z,38.00
2022-12-09T07:14:42.404Z,39.00
2022-12-09T07:17:46.787Z,34.00
2022-12-09T07:20:50.617Z,32.20
2022-12-09T07:23:54.124Z,32.00
2022-12-09T07:26:59.425Z,32.00
2022-12-09T07:30:09.585Z,31.80
2022-12-09T07:33:13.189Z,31.00
2022-12-09T07:36:21.053Z,29.60
2022-12-09T07:39:25.267Z,32.00
2022-12-09T07:42:29.565Z,28.00
2022-12-09T07:45:41.153Z,27.50
2022-12-09T07:48:45.692Z,29.00
2022-12-09T07:51:49.579Z,30.00
2022-12-09T07:54:55.312Z,30.00
2022-12-09T07:57:59.163Z,32.00
2022-12-09T08:01:08.336Z,30.00
2022-12-09T08:04:12.128Z,28.50
2022-12-09T08:07:15.571Z,29.00
2022-12-09T08:10:19.695Z,32.40
2022-12-09T08:13:23.233Z,32.00
2022-12-09T08:16:29.191Z,32.60
2022-12-09T08:19:33.008Z,30.00
2022-12-09T08:22:37.067Z,33.40
2022-12-09T08:25:40.913Z,33.60
2022-12-09T08:28:44.549Z,32.60
2022-12-09T08:31:49.900Z,31.00
2022-12-09T08:34:53.437Z,30.00
2022-12-09T08:37:57.666Z,30.00
2022-12-09T08:41:12.748Z,32.00
2022-12-09T08:44:18.158Z,36.00
2022-12-09T08:47:23.197Z,36.80
2022-12-09T08:50:26.640Z,40.00
2022-12-09T08:53:30.977Z,39.00
2022-12-09T08:56:34.715Z,39.00
2022-12-09T08:59:45.245Z,38.50
2022-12-09T09:02:50.949Z,39.00
2022-12-09T09:05:54.584Z,38.00
2022-12-09T09:08:59.517Z,36.00
2022-12-09T09:12:04.115Z,36.80
2022-12-09T09:15:08.867Z,35.00
2022-12-09T09:18:15.067Z,34.00
2022-12-09T09:21:21.730Z,36.00
2022-12-09T09:24:26.868Z,34.40
2022-12-09T09:27:31.038Z,33.00
2022-12-09T09:30:34.735Z,35.00
2022-12-09T09:33:39.878Z,35.60
2022-12-09T09:36:43.490Z,36.60
2022-12-09T09:39:47.251Z,36.00
2022-12-09T09:42:53.556Z,35.00
2022-12-09T09:45:59.632Z,38.00
2022-12-09T09:49:07.827Z,34.60
2022-12-09T09:52:17.067Z,35.75
2022-12-09T09:55:29.825Z,35.00
2022-12-09T09:58:42.803Z,35.00
2022-12-09T10:01:54.136Z,37.00
2022-12-09T10:05:14.467Z,38.00
2022-12-09T10:08:38.650Z,36.00
2022-12-09T10:11:56.573Z,34.20
2022-12-09T10:15:06.291Z,36.00
2022-12-09T10:18:19.194Z,36.40
2022-12-09T10:21:24.586Z,35.00
2022-12-09T10:24:38.808Z,34.50
2022-12-09T10:27:47.194Z,32.00
2022-12-09T10:30:52.614Z,31.60
2022-12-09T10:33:57.726Z,29.00
2022-12-09T10:37:03.089Z,29.40
2022-12-09T10:40:21.112Z,30.00
2022-12-09T10:43:38.745Z,30.75
2022-12-09T10:46:42.833Z,31.50
2022-12-09T10:49:50.915Z,29.80
2022-12-09T10:52:56.799Z,30.00
2022-12-09T10:56:02.613Z,30.00
2022-12-09T10:59:20.498Z,29.00
2022-12-09T11:02:25.573Z,28.50
2022-12-09T11:05:34.771Z,27.00
2022-12-09T11:08:43.549Z,30.00
2022-12-09T11:11:49.074Z,26.00
2022-12-09T11:14:54.881Z,26.25
2022-12-09T11:18:01.526Z,29.20
2022-12-09T11:21:08.766Z,27.00
2022-12-09T11:24:24.920Z,27.00
2022-12-09T11:27:31.871Z,22.60
2022-12-09T11:30:57.707Z,19.60
2022-12-09T11:34:07.448Z,23.00
2022-12-09T11:37:12.736Z,19.00
2022-12-09T11:40:20.587Z,17.80
2022-12-09T11:43:33.075Z,19.00
2022-12-09T11:46:36.597Z,19.75
2022-12-09T11:49:52.616Z,18.00
2022-12-09T11:53:08.647Z,18.00
2022-12-09T11:56:18.183Z,15.00
2022-12-09T11:59:25.148Z,16.50
2022-12-09T12:02:36.372Z,19.20
2022-12-09T12:05:43.583Z,20.00
2022-12-09T12:08:52.990Z,19.75
2022-12-09T12:12:06.214Z,22.00
2022-12-09T12:15:16.267Z,25.40
2022-12-09T12:18:21.246Z,28.00
2022-12-09T12:21:51.428Z,25.50
2022-12-09T12:25:17.777Z,29.60
2022-12-09T12:28:58.978Z,26.00
2022-12-09T12:32:36.785Z,26.25
2022-12-09T12:35:57.965Z,30.00
2022-12-09T12:39:07.727Z,24.00
2022-12-09T12:42:25.722Z,30.00
2022-12-09T12:45:55.045Z,29.00
2022-12-09T12:49:15.110Z,29.00
2022-12-09T12:56:04.782Z,31.60
2022-12-09T12:59:16.059Z,32.80
2022-12-09T13:02:34.108Z,33.00
2022-12-09T13:05:39.500Z,35.60
2022-12-09T13:08:50.515Z,33.20
2022-12-09T13:12:04.346Z,35.60
2022-12-09T13:15:13.604Z,34.40
2022-12-09T13:18:23.539Z,32.60
2022-12-09T13:21:27.071Z,38.00
2022-12-09T13:24:40.620Z,35.50
2022-12-09T13:27:51.236Z,33.00
2022-12-09T13:30:59.553Z,33.60
2022-12-09T13:34:20.027Z,30.00
2022-12-09T13:37:56.763Z,33.00
2022-12-09T13:41:01.507Z,28.20
2022-12-09T13:44:10.721Z,30.00
2022-12-09T13:47:25.720Z,29.40
2022-12-09T13:50:35.942Z,32.20
2022-12-09T13:53:46.501Z,29.00
2022-12-09T13:57:15.095Z,31.40
2022-12-09T14:00:20.080Z,33.00
2022-12-09T14:03:34.879Z,34.60
2022-12-09T14:06:49.589Z,33.25
2022-12-09T14:09:56.179Z,33.00
2022-12-09T14:13:18.992Z,32.00
2022-12-09T14:16:35.524Z,30.75
2022-12-09T14:19:51.447Z,31.75
2022-12-09T14:23:19.640Z,32.00
2022-12-09T14:26:35.412Z,28.40
2022-12-09T14:29:52.415Z,28.80
2022-12-09T14:32:57.243Z,32.00
2022-12-09T14:36:06.338Z,29.50
2022-12-09T14:39:24.929Z,31.00
2022-12-09T14:42:38.263Z,26.40
2022-12-09T14:45:50.888Z,26.40
2022-12-09T14:48:57.865Z,25.20
2022-12-09T14:52:03.993Z,30.40
2022-12-09T14:55:09.821Z,31.00
2022-12-09T14:58:20.630Z,32.00
2022-12-09T15:01:25.343Z,28.67
2022-12-09T15:04:34.365Z,30.00
2022-12-09T15:07:44.740Z,25.20
2022-12-09T15:10:48.072Z,29.40
2022-12-09T15:13:54.044Z,27.40
2022-12-09T15:16:59.629Z,23.75
2022-12-09T15:20:04.382Z,22.80
2022-12-09T15:23:25.868Z,26.00
2022-12-09T15:26:31.083Z,18.20
2022-12-09T15:29:35.509Z,28.75
2022-12-09T15:32:40.723Z,30.00
2022-12-09T15:35:50.738Z,34.50
2022-12-09T15:39:00.164Z,33.75
2022-12-09T15:42:09.655Z,33.00
2022-12-09T15:45:17.514Z,32.00
2022-12-09T15:48:28.116Z,33.00
2022-12-09T15:51:32.569Z,33.00
2022-12-09T15:54:40.568Z,33.60
2022-12-09T15:57:45.438Z,35.00
2022-12-09T16:00:50.490Z,32.00
2022-12-09T16:03:57.160Z,30.50
2022-12-09T16:07:06.998Z,33.00
2022-12-09T16:10:13.825Z,25.00
2022-12-09T16:13:18.849Z,28.00
2022-12-09T16:16:28.427Z,35.00
2022-12-09T16:19:38.364Z,34.60
2022-12-09T16:22:43.112Z,32.67
2022-12-09T16:25:50.417Z,36.00
2022-12-09T16:28:59.589Z,35.00
2022-12-09T16:32:28.322Z,34.67
2022-12-09T16:35:39.840Z,39.00
2022-12-09T16:38:54.981Z,34.25
2022-12-09T16:42:01.826Z,39.40
2022-12-09T16:45:30.200Z,38.75
2022-12-09T16:48:33.472Z,37.00
2022-12-09T16:51:39.407Z,32.00
2022-12-09T16:54:43.974Z,32.00
2022-12-09T16:57:47.385Z,32.00
2022-12-09T17:00:51.269Z,36.00
2022-12-09T17:03:59.696Z,30.00
2022-12-09T17:07:04.524Z,30.00
2022-12-09T17:10:08.617Z,27.00
2022-12-09T17:13:12.955Z,38.75
2022-12-09T17:16:16.996Z,75.25
2022-12-09T17:19:20.523Z,32.60
2022-12-09T17:22:25.243Z,26.25
2022-12-09T17:25:29.868Z,30.00
2022-12-09T17:28:35.449Z,29.00
2022-12-09T17:31:38.761Z,30.00
2022-12-09T17:34:42.202Z,27.40
2022-12-09T17:37:46.948Z,31.00
2022-12-09T17:40:50.518Z,30.00
2022-12-09T17:43:54.213Z,30.80
2022-12-09T17:46:57.487Z,27.00
2022-12-09T17:50:01.327Z,35.40
2022-12-09T17:53:07.155Z,36.00
2022-12-09T17:56:12.053Z,30.00
2022-12-09T17:59:16.914Z,37.00
2022-12-09T18:02:20.295Z,32.60
2022-12-09T18:05:23.614Z,33.60
2022-12-09T18:08:29.739Z,31.40
2022-12-09T18:11:34.015Z,35.00
2022-12-09T18:14:37.298Z,32.00
2022-12-09T18:17:40.603Z,35.40
2022-12-09T18:20:44.268Z,37.40
2022-12-09T18:23:49.579Z,36.00
2022-12-09T18:26:52.895Z,32.00
2022-12-09T18:29:56.223Z,33.75
2022-12-09T18:32:59.678Z,35.00
2022-12-09T18:36:07.583Z,33.20
2022-12-09T18:39:12.427Z,35.00
2022-12-09T18:42:15.789Z,33.00
2022-12-09T18:45:19.357Z,31.60
2022-12-09T18:48:22.817Z,34.00
2022-12-09T18:51:27.015Z,33.20
2022-12-09T18:54:33.427Z,34.00
2022-12-09T18:57:36.821Z,32.40
2022-12-09T19:00:40.135Z,33.00
2022-12-09T19:03:43.587Z,32.20
2022-12-09T19:06:49.025Z,33.00
2022-12-09T19:09:53.710Z,28.00
2022-12-09T19:12:57.478Z,29.60
2022-12-09T19:16:04.959Z,27.60
2022-12-09T19:19:10.334Z,33.00
2022-12-09T19:22:14.631Z,31.80
2022-12-09T19:25:19.396Z,35.00
2022-12-09T19:28:23.256Z,31.50
2022-12-09T19:31:28.588Z,24.50
2022-12-09T19:34:31.882Z,28.00
2022-12-09T19:37:35.262Z,34.00
2022-12-09T19:40:40.060Z,30.00
2022-12-09T19:43:43.434Z,33.00
2022-12-09T19:46:47.500Z,32.00
2022-12-09T19:49:50.795Z,34.60
2022-12-09T19:52:54.056Z,25.40
2022-12-09T19:56:01.544Z,30.20
2022-12-09T19:59:06.381Z,30.00
2022-12-09T20:02:12.170Z,27.50
2022-12-09T20:05:16.006Z,30.00
2022-12-09T20:08:20.304Z,26.50
2022-12-09T20:11:26.818Z,29.20
2022-12-09T20:14:30.155Z,29.75
2022-12-09T20:17:33.591Z,32.00
2022-12-09T20:20:38.671Z,32.20
2022-12-09T20:23:43.721Z,29.00
2022-12-09T20:26:48.312Z,30.00
2022-12-09T20:29:51.651Z,35.00
2022-12-09T20:32:55.140Z,29.20
2022-12-09T20:35:59.534Z,31.60
2022-12-09T20:39:04.525Z,34.00
2022-12-09T20:42:09.229Z,30.00
2022-12-09T20:45:12.726Z,30.00
2022-12-09T20:48:16.361Z,32.00
2022-12-09T20:51:21.701Z,27.50
2022-12-09T20:54:25.069Z,28.00
2022-12-09T20:57:29.847Z,26.00
2022-12-09T21:00:33.226Z,28.00
2022-12-09T21:03:36.951Z,25.80
2022-12-09T21:06:42.121Z,30.00
2022-12-09T21:09:46.147Z,33.00
2022-12-09T21:12:50.885Z,34.00
2022-12-09T21:15:54.736Z,35.00
2022-12-09T21:18:59.896Z,33.20
2022-12-09T21:22:04.147Z,33.00
2022-12-09T21:25:09.576Z,31.50
2022-12-09T21:28:15.575Z,34.00
2022-12-09T21:31:21.543Z,33.00
2022-12-09T21:34:25.537Z,35.50
2022-12-09T21:37:28.899Z,38.00
2022-12-09T21:40:32.242Z,36.00
2022-12-09T21:43:38.370Z,34.00
2022-12-09T21:46:42.487Z,31.00
2022-12-09T21:49:46.058Z,34.00
2022-12-09T21:52:49.239Z,29.75
2022-12-09T21:55:52.947Z,32.00
2022-12-09T21:58:58.893Z,29.50
2022-12-09T22:02:02.219Z,30.00
2022-12-09T22:05:06.766Z,30.00
2022-12-09T22:08:10.236Z,26.00
2022-12-09T22:11:16.567Z,30.00
2022-12-09T22:14:21.224Z,22.20
2022-12-09T22:17:24.538Z,46.00
2022-12-09T22:21:07.747Z,33.00
2022-12-09T22:23:51.265Z,26.00
2022-12-09T22:26:54.992Z,22.40
2022-12-09T22:29:59.741Z,26.00
2022-12-09T22:33:03.142Z,21.00
2022-12-09T22:36:08.214Z,20.20
2022-12-09T22:39:14.078Z,26.33
2022-12-09T22:42:17.559Z,26.00
2022-12-09T22:45:22.792Z,26.00
2022-12-09T22:48:25.992Z,24.00
2022-12-09T22:51:31.694Z,24.00
2022-12-09T22:54:34.896Z,22.40
2022-12-09T22:57:38.213Z,26.00
2022-12-09T23:00:43.262Z,22.50
2022-12-09T23:03:46.616Z,27.00
2022-12-09T23:06:51.281Z,23.40
2022-12-09T23:09:54.802Z,24.25
2022-12-09T23:12:58.727Z,24.50
2022-12-09T23:16:05.051Z,26.00
2022-12-09T23:19:08.794Z,24.60
2022-12-09T23:22:12.070Z,27.60
2022-12-09T23:25:16.272Z,27.00
2022-12-09T23:28:19.645Z,25.00
2022-12-09T23:31:27.629Z,28.40
2022-12-09T23:34:31.219Z,27.00
2022-12-09T23:37:34.487Z,27.00
2022-12-09T23:40:37.733Z,25.00
2022-12-09T23:43:41.514Z,23.60
2022-12-09T23:46:46.529Z,27.20
2022-12-09T23:49:50.164Z,26.00
2022-12-09T23:52:53.523Z,25.00
2022-12-09T23:55:56.923Z,28.00
2022-12-09T23:59:02.894Z,24.50
